sensor_id;sensor_type;location;lat;lon;timestamp;temperature;humidity
25436;DHT22;13363;52.772;-3.890;2022-08-06T00:01:55;11.10;99.90
25436;DHT22;13363;52.772;-3.890;2022-08-06T00:04:21;11.10;99.90
25436;DHT22;13363;52.772;-3.890;2022-08-06T00:06:48;11.10;99.90
25436;DHT22;13363;52.772;-3.890;2022-08-06T00:09:14;11.10;99.90
25436;DHT22;13363;52.772;-3.890;2022-08-06T00:11:40;11.00;99.90
25436;DHT22;13363;52.772;-3.890;2022-08-06T00:14:09;10.90;99.90
25436;DHT22;13363;52.772;-3.890;2022-08-06T00:16:35;11.00;99.90
25436;DHT22;13363;52.772;-3.890;2022-08-06T00:19:02;11.00;99.90
25436;DHT22;13363;52.772;-3.890;2022-08-06T00:21:28;10.90;99.90
25436;DHT22;13363;52.772;-3.890;2022-08-06T00:23:54;10.90;99.90
25436;DHT22;13363;52.772;-3.890;2022-08-06T00:26:20;10.80;99.90
25436;DHT22;13363;52.772;-3.890;2022-08-06T00:28:46;10.80;99.90
25436;DHT22;13363;52.772;-3.890;2022-08-06T00:31:12;10.70;99.90
25436;DHT22;13363;52.772;-3.890;2022-08-06T00:33:41;10.70;99.90
25436;DHT22;13363;52.772;-3.890;2022-08-06T00:36:07;10.70;99.90
25436;DHT22;13363;52.772;-3.890;2022-08-06T00:38:33;10.70;99.90
25436;DHT22;13363;52.772;-3.890;2022-08-06T00:40:59;10.60;99.90
25436;DHT22;13363;52.772;-3.890;2022-08-06T00:43:26;10.60;99.90
25436;DHT22;13363;52.772;-3.890;2022-08-06T00:45:53;10.60;99.90
25436;DHT22;13363;52.772;-3.890;2022-08-06T00:48:19;10.70;99.90
25436;DHT22;13363;52.772;-3.890;2022-08-06T00:50:44;10.60;99.90
25436;DHT22;13363;52.772;-3.890;2022-08-06T00:53:10;10.60;99.90
25436;DHT22;13363;52.772;-3.890;2022-08-06T00:55:36;10.60;99.90
25436;DHT22;13363;52.772;-3.890;2022-08-06T00:58:03;10.50;99.90
25436;DHT22;13363;52.772;-3.890;2022-08-06T01:00:30;10.50;99.90
25436;DHT22;13363;52.772;-3.890;2022-08-06T01:02:56;10.50;99.90
25436;DHT22;13363;52.772;-3.890;2022-08-06T01:05:22;10.40;99.90
25436;DHT22;13363;52.772;-3.890;2022-08-06T01:07:47;10.40;99.90
25436;DHT22;13363;52.772;-3.890;2022-08-06T01:10:13;10.40;99.90
25436;DHT22;13363;52.772;-3.890;2022-08-06T01:12:39;10.40;99.90
25436;DHT22;13363;52.772;-3.890;2022-08-06T01:15:06;10.40;99.90
25436;DHT22;13363;52.772;-3.890;2022-08-06T01:18:04;10.40;99.90
25436;DHT22;13363;52.772;-3.890;2022-08-06T01:20:51;10.50;99.90
25436;DHT22;13363;52.772;-3.890;2022-08-06T01:24:02;10.40;99.90
25436;DHT22;13363;52.772;-3.890;2022-08-06T01:26:46;10.30;99.90
25436;DHT22;13363;52.772;-3.890;2022-08-06T01:29:36;10.30;99.90
25436;DHT22;13363;52.772;-3.890;2022-08-06T01:32:14;10.30;99.90
25436;DHT22;13363;52.772;-3.890;2022-08-06T01:34:51;10.20;99.90
25436;DHT22;13363;52.772;-3.890;2022-08-06T01:37:32;10.20;99.90
25436;DHT22;13363;52.772;-3.890;2022-08-06T01:40:03;10.20;99.90
25436;DHT22;13363;52.772;-3.890;2022-08-06T01:42:31;10.20;99.90
25436;DHT22;13363;52.772;-3.890;2022-08-06T01:45:00;10.20;99.90
25436;DHT22;13363;52.772;-3.890;2022-08-06T01:47:30;10.30;99.90
25436;DHT22;13363;52.772;-3.890;2022-08-06T01:49:59;10.30;99.90
25436;DHT22;13363;52.772;-3.890;2022-08-06T01:52:49;10.20;99.90
25436;DHT22;13363;52.772;-3.890;2022-08-06T01:55:16;10.20;99.90
25436;DHT22;13363;52.772;-3.890;2022-08-06T01:57:51;10.10;99.90
25436;DHT22;13363;52.772;-3.890;2022-08-06T02:00:19;10.20;99.90
25436;DHT22;13363;52.772;-3.890;2022-08-06T02:02:46;10.20;99.90
25436;DHT22;13363;52.772;-3.890;2022-08-06T02:05:15;10.20;99.90
25436;DHT22;13363;52.772;-3.890;2022-08-06T02:07:47;10.10;99.90
25436;DHT22;13363;52.772;-3.890;2022-08-06T02:10:14;10.10;99.90
25436;DHT22;13363;52.772;-3.890;2022-08-06T02:12:44;10.00;99.90
25436;DHT22;13363;52.772;-3.890;2022-08-06T02:15:24;10.00;99.90
25436;DHT22;13363;52.772;-3.890;2022-08-06T02:17:54;9.90;99.90
25436;DHT22;13363;52.772;-3.890;2022-08-06T02:20:34;9.80;99.90
25436;DHT22;13363;52.772;-3.890;2022-08-06T02:23:02;9.80;99.90
25436;DHT22;13363;52.772;-3.890;2022-08-06T02:25:30;9.70;99.90
25436;DHT22;13363;52.772;-3.890;2022-08-06T02:27:58;9.70;99.90
25436;DHT22;13363;52.772;-3.890;2022-08-06T02:30:31;9.60;99.90
25436;DHT22;13363;52.772;-3.890;2022-08-06T02:32:57;9.60;99.90
25436;DHT22;13363;52.772;-3.890;2022-08-06T02:35:23;9.60;99.90
25436;DHT22;13363;52.772;-3.890;2022-08-06T02:37:56;9.60;99.90
25436;DHT22;13363;52.772;-3.890;2022-08-06T02:40:31;9.60;99.90
25436;DHT22;13363;52.772;-3.890;2022-08-06T02:43:04;9.50;99.90
25436;DHT22;13363;52.772;-3.890;2022-08-06T02:45:38;9.50;99.90
25436;DHT22;13363;52.772;-3.890;2022-08-06T02:48:12;9.50;99.90
25436;DHT22;13363;52.772;-3.890;2022-08-06T02:50:43;9.50;99.90
25436;DHT22;13363;52.772;-3.890;2022-08-06T02:53:16;9.50;99.90
25436;DHT22;13363;52.772;-3.890;2022-08-06T02:55:46;9.40;99.90
25436;DHT22;13363;52.772;-3.890;2022-08-06T02:58:17;9.40;99.90
25436;DHT22;13363;52.772;-3.890;2022-08-06T03:00:47;9.40;99.90
25436;DHT22;13363;52.772;-3.890;2022-08-06T03:03:15;9.40;99.90
25436;DHT22;13363;52.772;-3.890;2022-08-06T03:05:44;9.30;99.90
25436;DHT22;13363;52.772;-3.890;2022-08-06T03:08:14;9.40;99.90
25436;DHT22;13363;52.772;-3.890;2022-08-06T03:10:42;9.40;99.90
25436;DHT22;13363;52.772;-3.890;2022-08-06T03:13:09;9.40;99.90
25436;DHT22;13363;52.772;-3.890;2022-08-06T03:15:36;9.40;99.90
25436;DHT22;13363;52.772;-3.890;2022-08-06T03:18:06;9.40;99.90
25436;DHT22;13363;52.772;-3.890;2022-08-06T03:20:34;9.40;99.90
25436;DHT22;13363;52.772;-3.890;2022-08-06T03:23:05;9.30;99.90
25436;DHT22;13363;52.772;-3.890;2022-08-06T03:25:32;9.30;99.90
25436;DHT22;13363;52.772;-3.890;2022-08-06T03:27:59;9.30;99.90
25436;DHT22;13363;52.772;-3.890;2022-08-06T03:30:26;9.30;99.90
25436;DHT22;13363;52.772;-3.890;2022-08-06T03:32:52;9.40;99.90
25436;DHT22;13363;52.772;-3.890;2022-08-06T03:35:19;9.40;99.90
25436;DHT22;13363;52.772;-3.890;2022-08-06T03:37:47;9.40;99.90
25436;DHT22;13363;52.772;-3.890;2022-08-06T03:40:14;9.40;99.90
25436;DHT22;13363;52.772;-3.890;2022-08-06T03:42:42;9.30;99.90
25436;DHT22;13363;52.772;-3.890;2022-08-06T03:45:08;9.30;99.90
25436;DHT22;13363;52.772;-3.890;2022-08-06T03:47:41;9.30;99.90
25436;DHT22;13363;52.772;-3.890;2022-08-06T03:50:11;9.30;99.90
25436;DHT22;13363;52.772;-3.890;2022-08-06T03:52:41;9.20;99.90
25436;DHT22;13363;52.772;-3.890;2022-08-06T03:55:13;9.20;99.90
25436;DHT22;13363;52.772;-3.890;2022-08-06T03:57:46;9.20;99.90
25436;DHT22;13363;52.772;-3.890;2022-08-06T04:00:14;9.20;99.90
25436;DHT22;13363;52.772;-3.890;2022-08-06T04:02:44;9.20;99.90
25436;DHT22;13363;52.772;-3.890;2022-08-06T04:05:23;9.20;99.90
25436;DHT22;13363;52.772;-3.890;2022-08-06T04:08:04;9.20;99.90
25436;DHT22;13363;52.772;-3.890;2022-08-06T04:10:42;9.10;99.90
25436;DHT22;13363;52.772;-3.890;2022-08-06T04:13:11;9.00;99.90
25436;DHT22;13363;52.772;-3.890;2022-08-06T04:15:38;9.00;99.90
25436;DHT22;13363;52.772;-3.890;2022-08-06T04:18:10;9.00;99.90
25436;DHT22;13363;52.772;-3.890;2022-08-06T04:20:39;9.00;99.90
25436;DHT22;13363;52.772;-3.890;2022-08-06T04:23:05;9.00;99.90
25436;DHT22;13363;52.772;-3.890;2022-08-06T04:25:36;9.00;99.90
25436;DHT22;13363;52.772;-3.890;2022-08-06T04:28:04;8.90;99.90
25436;DHT22;13363;52.772;-3.890;2022-08-06T04:30:31;8.90;99.90
25436;DHT22;13363;52.772;-3.890;2022-08-06T04:32:59;8.90;99.90
25436;DHT22;13363;52.772;-3.890;2022-08-06T04:35:25;9.00;99.90
25436;DHT22;13363;52.772;-3.890;2022-08-06T04:37:52;9.00;99.90
25436;DHT22;13363;52.772;-3.890;2022-08-06T04:40:18;9.00;99.90
25436;DHT22;13363;52.772;-3.890;2022-08-06T04:42:45;9.00;99.90
25436;DHT22;13363;52.772;-3.890;2022-08-06T04:45:11;9.00;99.90
25436;DHT22;13363;52.772;-3.890;2022-08-06T04:47:38;9.00;99.90
25436;DHT22;13363;52.772;-3.890;2022-08-06T04:50:05;9.00;99.90
25436;DHT22;13363;52.772;-3.890;2022-08-06T04:52:31;8.90;99.90
25436;DHT22;13363;52.772;-3.890;2022-08-06T04:54:58;9.00;99.90
25436;DHT22;13363;52.772;-3.890;2022-08-06T04:57:24;8.90;99.90
25436;DHT22;13363;52.772;-3.890;2022-08-06T04:59:50;9.00;99.90
25436;DHT22;13363;52.772;-3.890;2022-08-06T05:02:15;9.00;99.90
25436;DHT22;13363;52.772;-3.890;2022-08-06T05:04:42;9.00;99.90
25436;DHT22;13363;52.772;-3.890;2022-08-06T05:07:16;9.00;99.90
25436;DHT22;13363;52.772;-3.890;2022-08-06T05:09:44;9.00;99.90
25436;DHT22;13363;52.772;-3.890;2022-08-06T05:17:32;9.20;99.90
25436;DHT22;13363;52.772;-3.890;2022-08-06T05:20:09;9.20;99.90
25436;DHT22;13363;52.772;-3.890;2022-08-06T05:22:37;9.20;99.90
25436;DHT22;13363;52.772;-3.890;2022-08-06T05:25:05;9.30;99.90
25436;DHT22;13363;52.772;-3.890;2022-08-06T05:27:31;9.40;99.90
25436;DHT22;13363;52.772;-3.890;2022-08-06T05:29:57;9.50;99.90
25436;DHT22;13363;52.772;-3.890;2022-08-06T05:32:23;9.50;99.90
25436;DHT22;13363;52.772;-3.890;2022-08-06T05:34:49;9.60;99.90
25436;DHT22;13363;52.772;-3.890;2022-08-06T05:37:15;9.60;99.90
25436;DHT22;13363;52.772;-3.890;2022-08-06T05:39:41;9.70;99.90
25436;DHT22;13363;52.772;-3.890;2022-08-06T05:42:06;9.70;99.90
25436;DHT22;13363;52.772;-3.890;2022-08-06T05:44:32;9.80;99.90
25436;DHT22;13363;52.772;-3.890;2022-08-06T05:47:04;9.80;99.90
25436;DHT22;13363;52.772;-3.890;2022-08-06T05:49:44;9.90;99.90
25436;DHT22;13363;52.772;-3.890;2022-08-06T05:52:22;9.90;99.90
25436;DHT22;13363;52.772;-3.890;2022-08-06T05:55:17;9.90;99.90
25436;DHT22;13363;52.772;-3.890;2022-08-06T05:57:50;9.90;99.90
25436;DHT22;13363;52.772;-3.890;2022-08-06T06:00:19;10.00;99.90
25436;DHT22;13363;52.772;-3.890;2022-08-06T06:02:48;10.10;99.90
25436;DHT22;13363;52.772;-3.890;2022-08-06T06:05:15;10.20;99.90
25436;DHT22;13363;52.772;-3.890;2022-08-06T06:07:42;10.20;99.90
25436;DHT22;13363;52.772;-3.890;2022-08-06T06:10:08;10.40;99.90
25436;DHT22;13363;52.772;-3.890;2022-08-06T06:12:36;10.50;99.90
25436;DHT22;13363;52.772;-3.890;2022-08-06T06:15:03;10.60;99.90
25436;DHT22;13363;52.772;-3.890;2022-08-06T06:23:32;11.50;99.90
25436;DHT22;13363;52.772;-3.890;2022-08-06T06:26:24;12.10;99.90
25436;DHT22;13363;52.772;-3.890;2022-08-06T06:32:08;11.90;99.90
25436;DHT22;13363;52.772;-3.890;2022-08-06T06:40:10;12.50;99.90
25436;DHT22;13363;52.772;-3.890;2022-08-06T06:43:29;13.20;99.90
25436;DHT22;13363;52.772;-3.890;2022-08-06T06:48:48;14.90;99.90
25436;DHT22;13363;52.772;-3.890;2022-08-06T06:51:36;16.00;99.90
25436;DHT22;13363;52.772;-3.890;2022-08-06T06:54:05;17.10;99.90
25436;DHT22;13363;52.772;-3.890;2022-08-06T06:56:36;17.40;99.90
25436;DHT22;13363;52.772;-3.890;2022-08-06T06:59:15;17.40;99.90
25436;DHT22;13363;52.772;-3.890;2022-08-06T07:01:44;17.20;99.90
25436;DHT22;13363;52.772;-3.890;2022-08-06T07:04:14;17.20;99.90
25436;DHT22;13363;52.772;-3.890;2022-08-06T07:06:43;17.30;99.90
25436;DHT22;13363;52.772;-3.890;2022-08-06T07:09:22;17.20;99.90
25436;DHT22;13363;52.772;-3.890;2022-08-06T07:11:50;17.90;99.90
25436;DHT22;13363;52.772;-3.890;2022-08-06T07:14:19;17.90;99.90
25436;DHT22;13363;52.772;-3.890;2022-08-06T07:16:46;17.70;99.90
25436;DHT22;13363;52.772;-3.890;2022-08-06T07:19:16;18.20;99.90
25436;DHT22;13363;52.772;-3.890;2022-08-06T07:21:44;18.80;99.90
25436;DHT22;13363;52.772;-3.890;2022-08-06T07:24:13;19.40;99.90
25436;DHT22;13363;52.772;-3.890;2022-08-06T07:26:43;19.60;99.90
25436;DHT22;13363;52.772;-3.890;2022-08-06T07:29:09;20.30;99.90
25436;DHT22;13363;52.772;-3.890;2022-08-06T07:31:38;20.10;99.90
25436;DHT22;13363;52.772;-3.890;2022-08-06T07:34:04;19.70;99.90
25436;DHT22;13363;52.772;-3.890;2022-08-06T07:36:33;19.90;99.90
25436;DHT22;13363;52.772;-3.890;2022-08-06T07:39:09;20.30;99.90
25436;DHT22;13363;52.772;-3.890;2022-08-06T07:41:36;20.10;99.90
25436;DHT22;13363;52.772;-3.890;2022-08-06T07:44:05;20.40;99.90
25436;DHT22;13363;52.772;-3.890;2022-08-06T07:46:38;19.80;99.90
25436;DHT22;13363;52.772;-3.890;2022-08-06T07:49:06;19.20;99.90
25436;DHT22;13363;52.772;-3.890;2022-08-06T07:51:35;19.40;99.90
25436;DHT22;13363;52.772;-3.890;2022-08-06T07:54:03;19.40;99.90
25436;DHT22;13363;52.772;-3.890;2022-08-06T07:56:29;19.70;99.90
25436;DHT22;13363;52.772;-3.890;2022-08-06T07:58:56;20.10;99.90
25436;DHT22;13363;52.772;-3.890;2022-08-06T08:01:24;20.30;99.90
25436;DHT22;13363;52.772;-3.890;2022-08-06T08:03:50;19.60;99.90
25436;DHT22;13363;52.772;-3.890;2022-08-06T08:06:35;19.20;99.90
25436;DHT22;13363;52.772;-3.890;2022-08-06T08:09:18;19.50;99.90
25436;DHT22;13363;52.772;-3.890;2022-08-06T08:11:47;18.90;99.90
25436;DHT22;13363;52.772;-3.890;2022-08-06T08:14:17;18.60;99.90
25436;DHT22;13363;52.772;-3.890;2022-08-06T08:16:44;19.10;99.90
25436;DHT22;13363;52.772;-3.890;2022-08-06T08:19:30;19.50;99.90
25436;DHT22;13363;52.772;-3.890;2022-08-06T08:22:01;19.50;99.90
25436;DHT22;13363;52.772;-3.890;2022-08-06T08:24:29;20.00;99.90
25436;DHT22;13363;52.772;-3.890;2022-08-06T08:26:57;21.10;99.90
25436;DHT22;13363;52.772;-3.890;2022-08-06T08:29:25;21.90;99.90
25436;DHT22;13363;52.772;-3.890;2022-08-06T08:31:52;22.50;99.90
25436;DHT22;13363;52.772;-3.890;2022-08-06T08:34:18;23.40;99.90
25436;DHT22;13363;52.772;-3.890;2022-08-06T08:36:44;23.70;99.90
25436;DHT22;13363;52.772;-3.890;2022-08-06T08:39:10;24.10;99.90
25436;DHT22;13363;52.772;-3.890;2022-08-06T08:41:41;23.70;99.90
25436;DHT22;13363;52.772;-3.890;2022-08-06T08:44:09;24.00;99.90
25436;DHT22;13363;52.772;-3.890;2022-08-06T08:46:41;23.50;99.90
25436;DHT22;13363;52.772;-3.890;2022-08-06T08:49:20;24.50;99.90
25436;DHT22;13363;52.772;-3.890;2022-08-06T08:51:51;25.50;99.90
25436;DHT22;13363;52.772;-3.890;2022-08-06T08:54:21;25.70;99.90
25436;DHT22;13363;52.772;-3.890;2022-08-06T08:56:48;25.20;99.90
25436;DHT22;13363;52.772;-3.890;2022-08-06T08:59:15;25.40;99.90
25436;DHT22;13363;52.772;-3.890;2022-08-06T09:01:42;24.40;99.90
25436;DHT22;13363;52.772;-3.890;2022-08-06T09:04:08;23.30;99.90
25436;DHT22;13363;52.772;-3.890;2022-08-06T09:06:36;22.70;99.90
25436;DHT22;13363;52.772;-3.890;2022-08-06T09:09:03;22.20;99.90
25436;DHT22;13363;52.772;-3.890;2022-08-06T09:11:34;22.30;99.90
25436;DHT22;13363;52.772;-3.890;2022-08-06T09:14:09;23.20;99.90
25436;DHT22;13363;52.772;-3.890;2022-08-06T09:16:36;23.30;99.90
25436;DHT22;13363;52.772;-3.890;2022-08-06T09:19:04;22.60;99.90
25436;DHT22;13363;52.772;-3.890;2022-08-06T09:21:31;22.10;99.90
25436;DHT22;13363;52.772;-3.890;2022-08-06T09:23:58;22.30;99.90
25436;DHT22;13363;52.772;-3.890;2022-08-06T09:26:24;22.30;99.90
25436;DHT22;13363;52.772;-3.890;2022-08-06T09:28:50;22.90;99.90
25436;DHT22;13363;52.772;-3.890;2022-08-06T09:31:18;22.30;99.90
25436;DHT22;13363;52.772;-3.890;2022-08-06T09:34:01;21.30;99.90
25436;DHT22;13363;52.772;-3.890;2022-08-06T09:36:27;21.60;99.90
25436;DHT22;13363;52.772;-3.890;2022-08-06T09:38:58;22.10;99.90
25436;DHT22;13363;52.772;-3.890;2022-08-06T09:41:27;22.30;99.90
25436;DHT22;13363;52.772;-3.890;2022-08-06T09:43:56;21.80;99.90
25436;DHT22;13363;52.772;-3.890;2022-08-06T09:46:44;21.10;99.90
25436;DHT22;13363;52.772;-3.890;2022-08-06T09:49:11;20.80;99.90
25436;DHT22;13363;52.772;-3.890;2022-08-06T09:51:38;21.10;99.90
25436;DHT22;13363;52.772;-3.890;2022-08-06T09:54:07;21.60;99.90
25436;DHT22;13363;52.772;-3.890;2022-08-06T09:56:35;21.00;99.90
25436;DHT22;13363;52.772;-3.890;2022-08-06T09:59:06;20.20;99.90
25436;DHT22;13363;52.772;-3.890;2022-08-06T10:01:45;20.10;99.90
25436;DHT22;13363;52.772;-3.890;2022-08-06T10:04:24;20.20;99.90
25436;DHT22;13363;52.772;-3.890;2022-08-06T10:06:58;20.20;99.90
25436;DHT22;13363;52.772;-3.890;2022-08-06T10:09:25;19.90;99.90
25436;DHT22;13363;52.772;-3.890;2022-08-06T10:11:51;20.00;99.90
25436;DHT22;13363;52.772;-3.890;2022-08-06T10:17:13;20.90;99.90
25436;DHT22;13363;52.772;-3.890;2022-08-06T10:19:42;20.90;99.90
25436;DHT22;13363;52.772;-3.890;2022-08-06T10:22:13;21.10;99.90
25436;DHT22;13363;52.772;-3.890;2022-08-06T10:24:44;21.20;99.90
25436;DHT22;13363;52.772;-3.890;2022-08-06T10:27:12;21.40;99.90
25436;DHT22;13363;52.772;-3.890;2022-08-06T10:29:44;21.00;99.90
25436;DHT22;13363;52.772;-3.890;2022-08-06T10:32:15;20.80;99.90
25436;DHT22;13363;52.772;-3.890;2022-08-06T10:34:44;20.50;99.90
25436;DHT22;13363;52.772;-3.890;2022-08-06T10:37:17;20.30;99.90
25436;DHT22;13363;52.772;-3.890;2022-08-06T10:39:47;20.10;99.90
25436;DHT22;13363;52.772;-3.890;2022-08-06T10:42:14;20.10;99.90
25436;DHT22;13363;52.772;-3.890;2022-08-06T10:44:41;20.20;99.90
25436;DHT22;13363;52.772;-3.890;2022-08-06T10:47:11;20.00;99.90
25436;DHT22;13363;52.772;-3.890;2022-08-06T10:49:37;20.20;99.90
25436;DHT22;13363;52.772;-3.890;2022-08-06T10:52:04;20.40;99.90
25436;DHT22;13363;52.772;-3.890;2022-08-06T10:54:31;21.00;99.90
25436;DHT22;13363;52.772;-3.890;2022-08-06T10:57:00;21.90;99.90
25436;DHT22;13363;52.772;-3.890;2022-08-06T10:59:26;21.70;99.90
25436;DHT22;13363;52.772;-3.890;2022-08-06T11:07:37;22.00;99.90
25436;DHT22;13363;52.772;-3.890;2022-08-06T11:10:29;21.70;99.90
25436;DHT22;13363;52.772;-3.890;2022-08-06T11:15:36;21.70;99.90
25436;DHT22;13363;52.772;-3.890;2022-08-06T11:18:08;21.10;99.90
25436;DHT22;13363;52.772;-3.890;2022-08-06T11:23:21;21.00;99.90
25436;DHT22;13363;52.772;-3.890;2022-08-06T11:25:50;21.00;99.90
25436;DHT22;13363;52.772;-3.890;2022-08-06T11:31:07;21.30;99.90
25436;DHT22;13363;52.772;-3.890;2022-08-06T11:36:00;21.40;99.90
25436;DHT22;13363;52.772;-3.890;2022-08-06T11:41:54;21.30;99.90
25436;DHT22;13363;52.772;-3.890;2022-08-06T11:44:22;21.10;99.90
25436;DHT22;13363;52.772;-3.890;2022-08-06T11:46:49;20.80;99.90
25436;DHT22;13363;52.772;-3.890;2022-08-06T11:49:17;20.80;99.90
25436;DHT22;13363;52.772;-3.890;2022-08-06T11:51:57;20.70;99.90
25436;DHT22;13363;52.772;-3.890;2022-08-06T11:54:28;20.90;99.90
25436;DHT22;13363;52.772;-3.890;2022-08-06T11:59:38;20.80;99.90
25436;DHT22;13363;52.772;-3.890;2022-08-06T12:02:09;21.00;99.90
25436;DHT22;13363;52.772;-3.890;2022-08-06T12:07:17;21.40;99.90
25436;DHT22;13363;52.772;-3.890;2022-08-06T12:09:45;21.40;99.90
25436;DHT22;13363;52.772;-3.890;2022-08-06T12:14:50;21.40;99.90
25436;DHT22;13363;52.772;-3.890;2022-08-06T12:17:20;20.70;99.90
25436;DHT22;13363;52.772;-3.890;2022-08-06T12:19:55;20.60;99.90
25436;DHT22;13363;52.772;-3.890;2022-08-06T12:22:23;20.40;99.90
25436;DHT22;13363;52.772;-3.890;2022-08-06T12:24:51;20.80;99.90
25436;DHT22;13363;52.772;-3.890;2022-08-06T12:27:20;21.00;99.90
25436;DHT22;13363;52.772;-3.890;2022-08-06T12:29:48;21.00;99.90
25436;DHT22;13363;52.772;-3.890;2022-08-06T12:32:20;20.80;99.90
25436;DHT22;13363;52.772;-3.890;2022-08-06T12:34:54;20.60;99.90
25436;DHT22;13363;52.772;-3.890;2022-08-06T12:37:20;21.00;99.90
25436;DHT22;13363;52.772;-3.890;2022-08-06T12:39:46;21.70;99.90
25436;DHT22;13363;52.772;-3.890;2022-08-06T12:45:29;21.50;99.90
25436;DHT22;13363;52.772;-3.890;2022-08-06T12:50:28;22.10;99.90
25436;DHT22;13363;52.772;-3.890;2022-08-06T12:53:12;22.00;99.90
25436;DHT22;13363;52.772;-3.890;2022-08-06T12:55:47;21.60;99.90
25436;DHT22;13363;52.772;-3.890;2022-08-06T12:58:19;21.50;99.90
25436;DHT22;13363;52.772;-3.890;2022-08-06T13:00:49;21.60;99.90
25436;DHT22;13363;52.772;-3.890;2022-08-06T13:03:17;21.70;99.90
25436;DHT22;13363;52.772;-3.890;2022-08-06T13:05:44;22.00;99.90
25436;DHT22;13363;52.772;-3.890;2022-08-06T13:08:11;21.80;99.90
25436;DHT22;13363;52.772;-3.890;2022-08-06T13:10:38;21.70;99.90
25436;DHT22;13363;52.772;-3.890;2022-08-06T13:13:07;21.10;99.90
25436;DHT22;13363;52.772;-3.890;2022-08-06T13:15:35;21.10;99.90
25436;DHT22;13363;52.772;-3.890;2022-08-06T13:18:16;21.20;99.90
25436;DHT22;13363;52.772;-3.890;2022-08-06T13:20:44;21.70;99.90
25436;DHT22;13363;52.772;-3.890;2022-08-06T13:23:14;21.40;99.90
25436;DHT22;13363;52.772;-3.890;2022-08-06T13:28:12;21.30;99.90
25436;DHT22;13363;52.772;-3.890;2022-08-06T13:30:40;21.10;99.90
25436;DHT22;13363;52.772;-3.890;2022-08-06T13:33:20;21.40;99.90
25436;DHT22;13363;52.772;-3.890;2022-08-06T13:36:07;21.70;99.90
25436;DHT22;13363;52.772;-3.890;2022-08-06T13:38:37;21.30;99.90
25436;DHT22;13363;52.772;-3.890;2022-08-06T13:41:04;21.40;99.90
25436;DHT22;13363;52.772;-3.890;2022-08-06T13:43:43;21.30;99.90
25436;DHT22;13363;52.772;-3.890;2022-08-06T13:46:12;21.40;99.90
25436;DHT22;13363;52.772;-3.890;2022-08-06T13:48:59;21.40;99.90
25436;DHT22;13363;52.772;-3.890;2022-08-06T13:51:26;20.90;99.90
25436;DHT22;13363;52.772;-3.890;2022-08-06T13:53:51;21.00;99.90
25436;DHT22;13363;52.772;-3.890;2022-08-06T13:56:17;21.40;99.90
25436;DHT22;13363;52.772;-3.890;2022-08-06T13:58:43;21.70;99.90
25436;DHT22;13363;52.772;-3.890;2022-08-06T14:01:13;21.70;99.90
25436;DHT22;13363;52.772;-3.890;2022-08-06T14:03:39;21.70;99.90
25436;DHT22;13363;52.772;-3.890;2022-08-06T14:06:05;21.30;99.90
25436;DHT22;13363;52.772;-3.890;2022-08-06T14:08:31;21.20;99.90
25436;DHT22;13363;52.772;-3.890;2022-08-06T14:10:57;21.20;99.90
25436;DHT22;13363;52.772;-3.890;2022-08-06T14:13:23;21.30;99.90
25436;DHT22;13363;52.772;-3.890;2022-08-06T14:15:50;21.10;99.90
25436;DHT22;13363;52.772;-3.890;2022-08-06T14:18:19;20.80;99.90
25436;DHT22;13363;52.772;-3.890;2022-08-06T14:20:45;20.50;99.90
25436;DHT22;13363;52.772;-3.890;2022-08-06T14:23:12;20.60;99.90
25436;DHT22;13363;52.772;-3.890;2022-08-06T14:25:38;20.40;99.90
25436;DHT22;13363;52.772;-3.890;2022-08-06T14:28:04;20.70;99.90
25436;DHT22;13363;52.772;-3.890;2022-08-06T14:30:31;20.80;99.90
25436;DHT22;13363;52.772;-3.890;2022-08-06T14:32:57;21.10;99.90
25436;DHT22;13363;52.772;-3.890;2022-08-06T14:35:25;21.10;99.90
25436;DHT22;13363;52.772;-3.890;2022-08-06T14:37:50;20.90;99.90
25436;DHT22;13363;52.772;-3.890;2022-08-06T14:40:20;20.90;99.90
25436;DHT22;13363;52.772;-3.890;2022-08-06T14:43:06;20.80;99.90
25436;DHT22;13363;52.772;-3.890;2022-08-06T14:45:50;20.70;99.90
25436;DHT22;13363;52.772;-3.890;2022-08-06T14:48:16;20.90;99.90
25436;DHT22;13363;52.772;-3.890;2022-08-06T14:50:42;20.80;99.90
25436;DHT22;13363;52.772;-3.890;2022-08-06T14:53:09;21.00;99.90
25436;DHT22;13363;52.772;-3.890;2022-08-06T14:55:39;21.10;99.90
25436;DHT22;13363;52.772;-3.890;2022-08-06T14:58:05;20.80;99.90
25436;DHT22;13363;52.772;-3.890;2022-08-06T15:00:32;20.50;99.90
25436;DHT22;13363;52.772;-3.890;2022-08-06T15:02:59;20.20;99.90
25436;DHT22;13363;52.772;-3.890;2022-08-06T15:05:24;20.10;99.90
25436;DHT22;13363;52.772;-3.890;2022-08-06T15:07:50;20.30;99.90
25436;DHT22;13363;52.772;-3.890;2022-08-06T15:10:17;20.20;99.90
25436;DHT22;13363;52.772;-3.890;2022-08-06T15:12:42;20.30;99.90
25436;DHT22;13363;52.772;-3.890;2022-08-06T15:15:09;20.40;99.90
25436;DHT22;13363;52.772;-3.890;2022-08-06T15:17:35;20.40;99.90
25436;DHT22;13363;52.772;-3.890;2022-08-06T15:20:01;20.30;99.90
25436;DHT22;13363;52.772;-3.890;2022-08-06T15:22:27;20.20;99.90
25436;DHT22;13363;52.772;-3.890;2022-08-06T15:24:52;20.10;99.90
25436;DHT22;13363;52.772;-3.890;2022-08-06T15:27:18;20.20;99.90
25436;DHT22;13363;52.772;-3.890;2022-08-06T15:29:47;19.90;99.90
25436;DHT22;13363;52.772;-3.890;2022-08-06T15:32:13;20.00;99.90
25436;DHT22;13363;52.772;-3.890;2022-08-06T15:34:39;20.10;99.90
25436;DHT22;13363;52.772;-3.890;2022-08-06T15:37:05;20.20;99.90
25436;DHT22;13363;52.772;-3.890;2022-08-06T15:39:33;20.10;99.90
25436;DHT22;13363;52.772;-3.890;2022-08-06T15:41:59;20.00;99.90
25436;DHT22;13363;52.772;-3.890;2022-08-06T15:44:25;19.90;99.90
25436;DHT22;13363;52.772;-3.890;2022-08-06T15:46:51;20.10;99.90
25436;DHT22;13363;52.772;-3.890;2022-08-06T15:49:17;20.00;99.90
25436;DHT22;13363;52.772;-3.890;2022-08-06T15:51:43;19.70;99.90
25436;DHT22;13363;52.772;-3.890;2022-08-06T15:54:10;19.80;99.90
25436;DHT22;13363;52.772;-3.890;2022-08-06T15:56:36;19.80;99.90
25436;DHT22;13363;52.772;-3.890;2022-08-06T15:59:03;19.70;99.90
25436;DHT22;13363;52.772;-3.890;2022-08-06T16:01:29;19.90;99.90
25436;DHT22;13363;52.772;-3.890;2022-08-06T16:03:56;19.70;99.90
25436;DHT22;13363;52.772;-3.890;2022-08-06T16:06:22;19.70;99.90
25436;DHT22;13363;52.772;-3.890;2022-08-06T16:08:48;19.80;99.90
25436;DHT22;13363;52.772;-3.890;2022-08-06T16:11:15;19.80;99.90
25436;DHT22;13363;52.772;-3.890;2022-08-06T16:13:41;19.70;99.90
25436;DHT22;13363;52.772;-3.890;2022-08-06T16:16:07;19.70;99.90
25436;DHT22;13363;52.772;-3.890;2022-08-06T16:18:33;19.60;99.90
25436;DHT22;13363;52.772;-3.890;2022-08-06T16:21:00;19.70;99.90
25436;DHT22;13363;52.772;-3.890;2022-08-06T16:23:27;19.90;99.90
25436;DHT22;13363;52.772;-3.890;2022-08-06T16:25:53;19.90;99.90
25436;DHT22;13363;52.772;-3.890;2022-08-06T16:28:19;20.00;99.90
25436;DHT22;13363;52.772;-3.890;2022-08-06T16:30:45;19.90;99.90
25436;DHT22;13363;52.772;-3.890;2022-08-06T16:33:11;20.00;99.90
25436;DHT22;13363;52.772;-3.890;2022-08-06T16:35:37;19.90;99.90
25436;DHT22;13363;52.772;-3.890;2022-08-06T16:38:03;19.80;99.90